U S A F Academy, Colorado
Current Conditions -  °F | °C
As of 5:59 AM on Sunday 23 Nov 2014 (Local Time) from KSHM Reporting Station
Scattered Clouds Scattered Clouds  
Wind Chill: -8°   Ceiling: Unl
Heat Index: -2°   Visibility: 10mi
Dew Point: -4°   Wind: 13mph
Humidity: 86%   Direction: 350°N
Pressure: 29.69"   Gusts: 30mph
Location:  38.8247°N, 104.562°W
Report Text: KSHM 231259Z AUTO 35011G26KT 10SM FEW034 SCT075 M02/M04 A2969 RMK AO2
Loading
Personal Weather Stations






























Interactive Weather Map New forecast layout! Learn more

10-Day Weather Forecast

Advertisements
Track Severe Weather on mobile